TimeEDT,TemperatureF,Dew PointF,Humidity,Sea Level PressureIn,VisibilityMPH,Wind Direction,Wind SpeedMPH,Gust SpeedMPH,PrecipitationIn,Events,Conditions,WindDirDegrees,DateUTC
12:56 AM,52.0,43.0,71,29.86,10.0,NW,10.4,-,N/A,,Clear,320,2013-09-23 04:56:00
1:56 AM,51.1,43.0,74,29.87,10.0,NNW,11.5,-,N/A,,Clear,330,2013-09-23 05:56:00
2:56 AM,50.0,44.1,80,29.87,10.0,NNW,8.1,-,N/A,,Clear,330,2013-09-23 06:56:00
3:56 AM,50.0,43.0,77,29.88,10.0,NNW,10.4,-,N/A,,Clear,330,2013-09-23 07:56:00
4:56 AM,48.9,41.0,74,29.90,10.0,NNW,6.9,-,N/A,,Clear,330,2013-09-23 08:56:00
5:56 AM,46.9,39.9,77,29.92,10.0,NNW,6.9,-,N/A,,Clear,330,2013-09-23 09:56:00
6:56 AM,48.0,41.0,77,29.94,10.0,NW,9.2,-,N/A,,Clear,310,2013-09-23 10:56:00
7:56 AM,50.0,42.1,74,29.95,10.0,NW,9.2,-,N/A,,Clear,310,2013-09-23 11:56:00
8:56 AM,53.1,42.1,66,29.96,10.0,WNW,9.2,-,N/A,,Clear,300,2013-09-23 12:56:00
9:56 AM,57.0,42.1,57,29.95,10.0,NNW,8.1,-,N/A,,Clear,340,2013-09-23 13:56:00
10:56 AM,59.0,42.1,53,29.94,10.0,NNW,13.8,19.6,N/A,,Clear,330,2013-09-23 14:56:00
11:56 AM,61.0,43.0,52,29.94,10.0,NNW,13.8,-,N/A,,Clear,340,2013-09-23 15:56:00
12:56 PM,63.0,43.0,48,29.93,10.0,NW,15.0,18.4,N/A,,Clear,310,2013-09-23 16:56:00
1:56 PM,64.0,44.1,48,29.93,10.0,North,11.5,-,N/A,,Clear,350,2013-09-23 17:56:00
2:56 PM,64.9,44.1,47,29.92,10.0,North,-9999.0,-,N/A,,Clear,0,2013-09-23 18:56:00
3:56 PM,64.9,44.1,47,29.91,10.0,NW,10.4,-,N/A,,Clear,320,2013-09-23 19:56:00
4:56 PM,64.9,44.1,47,29.92,10.0,NW,9.2,-,N/A,,Clear,320,2013-09-23 20:56:00
5:56 PM,62.1,45.0,53,29.94,10.0,NW,10.4,-,N/A,,Clear,320,2013-09-23 21:56:00
6:56 PM,57.0,46.0,67,29.96,10.0,WNW,4.6,-,N/A,,Clear,290,2013-09-23 22:56:00
7:56 PM,55.9,46.0,69,29.98,10.0,NW,5.8,-,N/A,,Clear,320,2013-09-23 23:56:00
8:56 PM,54.0,45.0,72,29.99,10.0,NNW,6.9,-,N/A,,Clear,340,2013-09-24 00:56:00
9:56 PM,53.1,46.0,77,30.00,10.0,Calm,Calm,-,N/A,,Clear,0,2013-09-24 01:56:00
10:56 PM,52.0,44.1,74,30.01,10.0,North,3.5,-,N/A,,Clear,10,2013-09-24 02:56:00
11:56 PM,48.9,43.0,80,30.02,10.0,North,4.6,-,N/A,,Clear,360,2013-09-24 03:56:00